Curitiba, Brazil

6:30 AM BRST on February 08, 2016 (GMT -0200)
Afonso Pena | | Change Station
CLOSE
Current Station
Airport
Location: Curitiba,
Elevation: 2979 ft
Nearby Weather Stations

Elev 2979 ft 25.53 °S, 49.18 °W | Updated 30 minutes ago

Mostly Cloudy
Mostly Cloudy
68 °F
Feels Like 68 °F
N
5
Wind Variable Wind from NE

Today
High -- | Low -- °F
--% Chance of Precip.
Yesterday
High -- | Low -- °F
Precip. -- in
Pressure 30.09 in
Visibility 6.2 miles
Clouds Few 300 ft
Mostly Cloudy 600 ft
Mostly Cloudy 1300 ft
Dew Point 66 °F
Humidity 94%
Rainfall 0.00 in
Snow Depth Not available.
6:57 AM 8:04 PM
Waning Crescent, 0% visible
METAR SBCT 080800Z 05004KT 9999 FEW003 BKN006 BKN013 20/19 Q1019
Pressure 30.09 in
Visibility 6.2 miles
Clouds Few 300 ft
Mostly Cloudy 600 ft
Mostly Cloudy 1300 ft
Dew Point 66 °F
Humidity 94%
Rainfall 0.00 in
Snow Depth Not available.
6:57 AM 8:04 PM
Waning Crescent, 0% visible
METAR SBCT 080800Z 05004KT 9999 FEW003 BKN006 BKN013 20/19 Q1019

10-Day Weather Forecast

No radar image for this location.
×

Almanac

Astronomy

Feb. 08, 2016 Rise Set
Actual Time
Civil Twilight
Nautical Twilight
Astronomical Twilight
Moon
Length of Visible Light
Length of Day
Tomorrow will be .
, % of the Moon is Illuminated

Today's Extremes

Country Highs Country Lows

Community

WunderPhotos

Upload Photos

1,891,412 photos uploaded!

WunderBlog® & News

Nearby

Air Quality

  Air Quality AQ Index Pollutant
Not available.

Snow Depth

Station Depth Elevation

Earthquake Activity

City Distance Mag. Time & Date
Minimum magnitude displayed is 2.5.

Coastal Water Temperatures

Place Temperature

Stations

Nearby Weather Stations

Station Location Temp. Windchill Dew Point Humidity Wind Precip. Elev Updated Type